sensor_id;sensor_type;location;lat;lon;timestamp;P1;durP1;ratioP1;P2;durP2;ratioP2
64826;SDS011;51265;53.972;12.286;2023-07-24T00:00:01;7.85;;;4.35;;
64826;SDS011;51265;53.972;12.286;2023-07-24T00:02:27;6.18;;;3.95;;
64826;SDS011;51265;53.972;12.286;2023-07-24T00:04:53;8.27;;;3.92;;
64826;SDS011;51265;53.972;12.286;2023-07-24T00:07:20;6.45;;;4.20;;
64826;SDS011;51265;53.972;12.286;2023-07-24T00:09:46;8.07;;;3.88;;
64826;SDS011;51265;53.972;12.286;2023-07-24T00:12:12;4.53;;;3.58;;
64826;SDS011;51265;53.972;12.286;2023-07-24T00:14:38;8.48;;;3.70;;
64826;SDS011;51265;53.972;12.286;2023-07-24T00:17:05;7.25;;;3.50;;
64826;SDS011;51265;53.972;12.286;2023-07-24T00:19:31;6.07;;;4.03;;
64826;SDS011;51265;53.972;12.286;2023-07-24T00:21:57;6.13;;;3.90;;
64826;SDS011;51265;53.972;12.286;2023-07-24T00:24:23;6.70;;;3.10;;
64826;SDS011;51265;53.972;12.286;2023-07-24T00:26:49;6.47;;;3.70;;
64826;SDS011;51265;53.972;12.286;2023-07-24T00:29:17;5.38;;;3.80;;
64826;SDS011;51265;53.972;12.286;2023-07-24T00:31:44;5.28;;;3.42;;
64826;SDS011;51265;53.972;12.286;2023-07-24T00:34:10;7.10;;;3.97;;
64826;SDS011;51265;53.972;12.286;2023-07-24T00:36:36;7.80;;;4.03;;
64826;SDS011;51265;53.972;12.286;2023-07-24T00:39:03;5.45;;;3.78;;
64826;SDS011;51265;53.972;12.286;2023-07-24T00:41:30;6.35;;;3.47;;
64826;SDS011;51265;53.972;12.286;2023-07-24T00:43:56;5.50;;;3.40;;
64826;SDS011;51265;53.972;12.286;2023-07-24T00:46:23;5.05;;;3.70;;
64826;SDS011;51265;53.972;12.286;2023-07-24T00:48:50;5.95;;;3.85;;
64826;SDS011;51265;53.972;12.286;2023-07-24T00:51:18;4.90;;;3.15;;
64826;SDS011;51265;53.972;12.286;2023-07-24T00:53:44;4.45;;;3.40;;
64826;SDS011;51265;53.972;12.286;2023-07-24T00:56:12;5.22;;;3.80;;
64826;SDS011;51265;53.972;12.286;2023-07-24T00:58:38;5.57;;;3.78;;
64826;SDS011;51265;53.972;12.286;2023-07-24T01:01:06;7.10;;;4.00;;
64826;SDS011;51265;53.972;12.286;2023-07-24T01:03:34;5.35;;;3.50;;
64826;SDS011;51265;53.972;12.286;2023-07-24T01:06:03;7.47;;;3.17;;
64826;SDS011;51265;53.972;12.286;2023-07-24T01:08:30;6.53;;;4.13;;
64826;SDS011;51265;53.972;12.286;2023-07-24T01:10:57;5.35;;;3.50;;
64826;SDS011;51265;53.972;12.286;2023-07-24T01:13:30;5.65;;;4.05;;
64826;SDS011;51265;53.972;12.286;2023-07-24T01:16:13;7.68;;;3.70;;
64826;SDS011;51265;53.972;12.286;2023-07-24T01:18:40;4.68;;;3.42;;
64826;SDS011;51265;53.972;12.286;2023-07-24T01:21:09;5.93;;;3.70;;
64826;SDS011;51265;53.972;12.286;2023-07-24T01:23:44;7.28;;;3.50;;
64826;SDS011;51265;53.972;12.286;2023-07-24T01:26:21;7.85;;;4.07;;
64826;SDS011;51265;53.972;12.286;2023-07-24T01:28:51;9.43;;;4.20;;
64826;SDS011;51265;53.972;12.286;2023-07-24T01:31:17;5.70;;;3.40;;
64826;SDS011;51265;53.972;12.286;2023-07-24T01:33:44;9.93;;;3.70;;
64826;SDS011;51265;53.972;12.286;2023-07-24T01:36:10;6.95;;;3.60;;
64826;SDS011;51265;53.972;12.286;2023-07-24T01:38:37;6.00;;;3.60;;
64826;SDS011;51265;53.972;12.286;2023-07-24T01:41:04;5.38;;;3.38;;
64826;SDS011;51265;53.972;12.286;2023-07-24T01:43:31;6.68;;;3.75;;
64826;SDS011;51265;53.972;12.286;2023-07-24T01:45:58;5.20;;;3.65;;
64826;SDS011;51265;53.972;12.286;2023-07-24T01:48:24;7.65;;;3.83;;
64826;SDS011;51265;53.972;12.286;2023-07-24T01:50:50;5.85;;;3.60;;
64826;SDS011;51265;53.972;12.286;2023-07-24T01:53:17;6.32;;;3.72;;
64826;SDS011;51265;53.972;12.286;2023-07-24T01:55:43;10.13;;;4.18;;
64826;SDS011;51265;53.972;12.286;2023-07-24T01:58:09;8.25;;;4.03;;
64826;SDS011;51265;53.972;12.286;2023-07-24T02:00:35;6.20;;;3.95;;
64826;SDS011;51265;53.972;12.286;2023-07-24T02:03:01;4.53;;;3.83;;
64826;SDS011;51265;53.972;12.286;2023-07-24T02:05:28;5.55;;;3.95;;
64826;SDS011;51265;53.972;12.286;2023-07-24T02:07:54;9.13;;;4.13;;
64826;SDS011;51265;53.972;12.286;2023-07-24T02:10:20;6.70;;;3.83;;
64826;SDS011;51265;53.972;12.286;2023-07-24T02:12:47;4.65;;;3.33;;
64826;SDS011;51265;53.972;12.286;2023-07-24T02:15:13;6.25;;;3.78;;
64826;SDS011;51265;53.972;12.286;2023-07-24T02:17:40;6.68;;;3.63;;
64826;SDS011;51265;53.972;12.286;2023-07-24T02:20:08;6.72;;;4.38;;
64826;SDS011;51265;53.972;12.286;2023-07-24T02:22:34;4.57;;;3.60;;
64826;SDS011;51265;53.972;12.286;2023-07-24T02:25:01;6.07;;;3.88;;
64826;SDS011;51265;53.972;12.286;2023-07-24T02:27:29;6.65;;;3.83;;
64826;SDS011;51265;53.972;12.286;2023-07-24T02:29:58;5.18;;;4.47;;
64826;SDS011;51265;53.972;12.286;2023-07-24T02:32:24;8.18;;;4.22;;
64826;SDS011;51265;53.972;12.286;2023-07-24T02:34:51;7.25;;;4.15;;
64826;SDS011;51265;53.972;12.286;2023-07-24T02:37:18;7.53;;;4.13;;
64826;SDS011;51265;53.972;12.286;2023-07-24T02:39:45;6.03;;;3.75;;
64826;SDS011;51265;53.972;12.286;2023-07-24T02:42:11;8.07;;;4.00;;
64826;SDS011;51265;53.972;12.286;2023-07-24T02:44:38;4.53;;;3.60;;
64826;SDS011;51265;53.972;12.286;2023-07-24T02:47:04;8.45;;;4.20;;
64826;SDS011;51265;53.972;12.286;2023-07-24T02:49:31;6.47;;;3.90;;
64826;SDS011;51265;53.972;12.286;2023-07-24T02:51:58;7.13;;;4.50;;
64826;SDS011;51265;53.972;12.286;2023-07-24T02:54:25;8.05;;;4.35;;
64826;SDS011;51265;53.972;12.286;2023-07-24T02:56:52;8.85;;;4.45;;
64826;SDS011;51265;53.972;12.286;2023-07-24T02:59:18;4.88;;;3.85;;
64826;SDS011;51265;53.972;12.286;2023-07-24T03:01:45;7.43;;;4.13;;
64826;SDS011;51265;53.972;12.286;2023-07-24T03:04:11;6.00;;;4.35;;
64826;SDS011;51265;53.972;12.286;2023-07-24T03:06:38;6.80;;;4.35;;
64826;SDS011;51265;53.972;12.286;2023-07-24T03:09:05;5.78;;;4.10;;
64826;SDS011;51265;53.972;12.286;2023-07-24T03:11:31;7.93;;;3.72;;
64826;SDS011;51265;53.972;12.286;2023-07-24T03:13:57;7.25;;;4.03;;
64826;SDS011;51265;53.972;12.286;2023-07-24T03:16:24;6.40;;;4.05;;
64826;SDS011;51265;53.972;12.286;2023-07-24T03:18:50;7.95;;;4.30;;
64826;SDS011;51265;53.972;12.286;2023-07-24T03:21:16;6.43;;;4.57;;
64826;SDS011;51265;53.972;12.286;2023-07-24T03:23:43;7.55;;;4.97;;
64826;SDS011;51265;53.972;12.286;2023-07-24T03:26:09;6.85;;;4.53;;
64826;SDS011;51265;53.972;12.286;2023-07-24T03:28:35;9.60;;;4.97;;
64826;SDS011;51265;53.972;12.286;2023-07-24T03:31:02;8.43;;;4.72;;
64826;SDS011;51265;53.972;12.286;2023-07-24T03:33:28;5.15;;;4.28;;
64826;SDS011;51265;53.972;12.286;2023-07-24T03:35:54;7.43;;;4.88;;
64826;SDS011;51265;53.972;12.286;2023-07-24T03:38:20;9.07;;;4.75;;
64826;SDS011;51265;53.972;12.286;2023-07-24T03:40:47;7.35;;;4.50;;
64826;SDS011;51265;53.972;12.286;2023-07-24T03:43:14;6.28;;;4.28;;
64826;SDS011;51265;53.972;12.286;2023-07-24T03:45:40;6.82;;;4.72;;
64826;SDS011;51265;53.972;12.286;2023-07-24T03:48:08;5.30;;;3.90;;
64826;SDS011;51265;53.972;12.286;2023-07-24T03:50:35;5.85;;;4.30;;
64826;SDS011;51265;53.972;12.286;2023-07-24T03:53:01;6.88;;;3.97;;
64826;SDS011;51265;53.972;12.286;2023-07-24T03:55:27;5.28;;;4.03;;
64826;SDS011;51265;53.972;12.286;2023-07-24T03:57:53;5.88;;;4.30;;
64826;SDS011;51265;53.972;12.286;2023-07-24T04:00:20;6.68;;;4.43;;
64826;SDS011;51265;53.972;12.286;2023-07-24T04:02:46;7.65;;;4.57;;
64826;SDS011;51265;53.972;12.286;2023-07-24T04:05:12;7.32;;;4.10;;
64826;SDS011;51265;53.972;12.286;2023-07-24T04:07:39;7.93;;;4.00;;
64826;SDS011;51265;53.972;12.286;2023-07-24T04:10:05;6.60;;;4.53;;
64826;SDS011;51265;53.972;12.286;2023-07-24T04:12:32;8.25;;;4.47;;
64826;SDS011;51265;53.972;12.286;2023-07-24T04:14:58;6.63;;;4.15;;
64826;SDS011;51265;53.972;12.286;2023-07-24T04:17:24;7.20;;;4.47;;
64826;SDS011;51265;53.972;12.286;2023-07-24T04:19:50;7.32;;;4.45;;
64826;SDS011;51265;53.972;12.286;2023-07-24T04:22:17;6.75;;;4.20;;
64826;SDS011;51265;53.972;12.286;2023-07-24T04:24:43;5.72;;;4.28;;
64826;SDS011;51265;53.972;12.286;2023-07-24T04:27:09;7.90;;;4.72;;
64826;SDS011;51265;53.972;12.286;2023-07-24T04:29:35;6.00;;;4.70;;
64826;SDS011;51265;53.972;12.286;2023-07-24T04:32:02;6.45;;;4.60;;
64826;SDS011;51265;53.972;12.286;2023-07-24T04:34:28;5.70;;;4.65;;
64826;SDS011;51265;53.972;12.286;2023-07-24T04:36:54;9.00;;;4.97;;
64826;SDS011;51265;53.972;12.286;2023-07-24T04:39:20;5.18;;;4.38;;
64826;SDS011;51265;53.972;12.286;2023-07-24T04:41:46;7.50;;;5.05;;
64826;SDS011;51265;53.972;12.286;2023-07-24T04:44:13;10.27;;;5.05;;
64826;SDS011;51265;53.972;12.286;2023-07-24T04:46:39;10.52;;;5.15;;
64826;SDS011;51265;53.972;12.286;2023-07-24T04:49:05;6.93;;;4.70;;
64826;SDS011;51265;53.972;12.286;2023-07-24T04:51:31;7.15;;;5.10;;
64826;SDS011;51265;53.972;12.286;2023-07-24T04:53:57;5.68;;;4.72;;
64826;SDS011;51265;53.972;12.286;2023-07-24T04:56:24;5.78;;;4.60;;
64826;SDS011;51265;53.972;12.286;2023-07-24T04:58:50;8.40;;;6.70;;
64826;SDS011;51265;53.972;12.286;2023-07-24T05:01:16;10.93;;;8.18;;
64826;SDS011;51265;53.972;12.286;2023-07-24T05:03:42;6.85;;;4.97;;
64826;SDS011;51265;53.972;12.286;2023-07-24T05:06:08;6.35;;;5.03;;
64826;SDS011;51265;53.972;12.286;2023-07-24T05:08:35;6.95;;;5.10;;
64826;SDS011;51265;53.972;12.286;2023-07-24T05:11:01;5.43;;;4.85;;
64826;SDS011;51265;53.972;12.286;2023-07-24T05:13:27;6.05;;;4.32;;
64826;SDS011;51265;53.972;12.286;2023-07-24T05:15:53;7.60;;;4.88;;
64826;SDS011;51265;53.972;12.286;2023-07-24T05:18:19;8.25;;;4.75;;
64826;SDS011;51265;53.972;12.286;2023-07-24T05:20:46;8.02;;;4.70;;
64826;SDS011;51265;53.972;12.286;2023-07-24T05:23:13;4.88;;;4.38;;
64826;SDS011;51265;53.972;12.286;2023-07-24T05:25:40;5.53;;;4.22;;
64826;SDS011;51265;53.972;12.286;2023-07-24T05:28:06;7.50;;;3.88;;
64826;SDS011;51265;53.972;12.286;2023-07-24T05:30:33;8.35;;;4.32;;
64826;SDS011;51265;53.972;12.286;2023-07-24T05:32:59;7.55;;;4.07;;
64826;SDS011;51265;53.972;12.286;2023-07-24T05:35:26;4.68;;;3.92;;
64826;SDS011;51265;53.972;12.286;2023-07-24T05:37:52;5.28;;;4.28;;
64826;SDS011;51265;53.972;12.286;2023-07-24T05:40:18;5.38;;;4.25;;
64826;SDS011;51265;53.972;12.286;2023-07-24T05:42:45;7.07;;;3.90;;
64826;SDS011;51265;53.972;12.286;2023-07-24T05:45:11;6.65;;;4.22;;
64826;SDS011;51265;53.972;12.286;2023-07-24T05:47:38;5.40;;;3.80;;
64826;SDS011;51265;53.972;12.286;2023-07-24T05:50:04;7.07;;;3.95;;
64826;SDS011;51265;53.972;12.286;2023-07-24T05:52:31;11.07;;;4.05;;
64826;SDS011;51265;53.972;12.286;2023-07-24T05:54:57;5.78;;;3.80;;
64826;SDS011;51265;53.972;12.286;2023-07-24T05:57:23;4.72;;;3.42;;
64826;SDS011;51265;53.972;12.286;2023-07-24T05:59:49;3.40;;;3.10;;
64826;SDS011;51265;53.972;12.286;2023-07-24T06:02:17;4.15;;;3.67;;
64826;SDS011;51265;53.972;12.286;2023-07-24T06:04:44;3.67;;;3.15;;
64826;SDS011;51265;53.972;12.286;2023-07-24T06:07:10;4.55;;;3.60;;
64826;SDS011;51265;53.972;12.286;2023-07-24T06:09:36;4.28;;;3.28;;
64826;SDS011;51265;53.972;12.286;2023-07-24T06:12:02;4.53;;;3.53;;
64826;SDS011;51265;53.972;12.286;2023-07-24T06:14:29;5.78;;;3.95;;
64826;SDS011;51265;53.972;12.286;2023-07-24T06:16:55;5.57;;;3.55;;
64826;SDS011;51265;53.972;12.286;2023-07-24T06:19:21;9.63;;;3.75;;
64826;SDS011;51265;53.972;12.286;2023-07-24T06:21:47;6.72;;;3.80;;
64826;SDS011;51265;53.972;12.286;2023-07-24T06:24:13;5.80;;;3.83;;
64826;SDS011;51265;53.972;12.286;2023-07-24T06:26:40;5.20;;;3.70;;
64826;SDS011;51265;53.972;12.286;2023-07-24T06:29:06;5.60;;;3.65;;
64826;SDS011;51265;53.972;12.286;2023-07-24T06:31:32;7.05;;;3.75;;
64826;SDS011;51265;53.972;12.286;2023-07-24T06:33:58;5.35;;;3.95;;
64826;SDS011;51265;53.972;12.286;2023-07-24T06:36:24;4.80;;;3.28;;
64826;SDS011;51265;53.972;12.286;2023-07-24T06:38:50;7.93;;;3.65;;
64826;SDS011;51265;53.972;12.286;2023-07-24T06:41:17;3.80;;;3.15;;
64826;SDS011;51265;53.972;12.286;2023-07-24T06:43:45;4.60;;;3.72;;
64826;SDS011;51265;53.972;12.286;2023-07-24T06:46:20;4.35;;;3.58;;
64826;SDS011;51265;53.972;12.286;2023-07-24T06:48:46;6.05;;;3.28;;
64826;SDS011;51265;53.972;12.286;2023-07-24T06:51:12;5.43;;;2.97;;
64826;SDS011;51265;53.972;12.286;2023-07-24T06:53:38;4.88;;;3.47;;
64826;SDS011;51265;53.972;12.286;2023-07-24T06:56:05;5.97;;;3.30;;
64826;SDS011;51265;53.972;12.286;2023-07-24T06:58:31;5.72;;;3.13;;
64826;SDS011;51265;53.972;12.286;2023-07-24T07:00:57;6.25;;;3.20;;
64826;SDS011;51265;53.972;12.286;2023-07-24T07:03:23;5.63;;;3.95;;
64826;SDS011;51265;53.972;12.286;2023-07-24T07:05:49;10.45;;;3.95;;
64826;SDS011;51265;53.972;12.286;2023-07-24T07:08:15;5.05;;;3.45;;
64826;SDS011;51265;53.972;12.286;2023-07-24T07:10:42;6.68;;;3.53;;
64826;SDS011;51265;53.972;12.286;2023-07-24T07:13:08;5.78;;;3.70;;
64826;SDS011;51265;53.972;12.286;2023-07-24T07:15:35;6.93;;;3.22;;
64826;SDS011;51265;53.972;12.286;2023-07-24T07:18:01;7.05;;;3.20;;
64826;SDS011;51265;53.972;12.286;2023-07-24T07:20:27;6.22;;;3.45;;
64826;SDS011;51265;53.972;12.286;2023-07-24T07:22:53;7.18;;;3.40;;
64826;SDS011;51265;53.972;12.286;2023-07-24T07:25:19;5.32;;;3.22;;
64826;SDS011;51265;53.972;12.286;2023-07-24T07:27:46;3.92;;;3.25;;
64826;SDS011;51265;53.972;12.286;2023-07-24T07:30:12;7.85;;;3.55;;
64826;SDS011;51265;53.972;12.286;2023-07-24T07:32:38;5.40;;;3.47;;
64826;SDS011;51265;53.972;12.286;2023-07-24T07:35:04;6.60;;;3.38;;
64826;SDS011;51265;53.972;12.286;2023-07-24T07:37:31;5.88;;;3.83;;
64826;SDS011;51265;53.972;12.286;2023-07-24T07:39:57;4.35;;;3.50;;
64826;SDS011;51265;53.972;12.286;2023-07-24T07:42:23;5.63;;;3.95;;
64826;SDS011;51265;53.972;12.286;2023-07-24T07:44:49;7.25;;;3.78;;
64826;SDS011;51265;53.972;12.286;2023-07-24T07:47:16;5.03;;;3.30;;
64826;SDS011;51265;53.972;12.286;2023-07-24T07:49:42;5.72;;;4.00;;
64826;SDS011;51265;53.972;12.286;2023-07-24T07:52:08;6.07;;;3.90;;
64826;SDS011;51265;53.972;12.286;2023-07-24T07:54:35;6.07;;;3.28;;
64826;SDS011;51265;53.972;12.286;2023-07-24T07:57:01;4.55;;;3.70;;
64826;SDS011;51265;53.972;12.286;2023-07-24T07:59:27;5.38;;;3.88;;
64826;SDS011;51265;53.972;12.286;2023-07-24T08:01:53;5.25;;;3.78;;
64826;SDS011;51265;53.972;12.286;2023-07-24T08:04:19;4.22;;;3.20;;
64826;SDS011;51265;53.972;12.286;2023-07-24T08:06:45;4.20;;;3.35;;
64826;SDS011;51265;53.972;12.286;2023-07-24T08:09:12;4.70;;;3.20;;
64826;SDS011;51265;53.972;12.286;2023-07-24T08:11:38;5.32;;;3.80;;
64826;SDS011;51265;53.972;12.286;2023-07-24T08:14:05;10.02;;;3.50;;
64826;SDS011;51265;53.972;12.286;2023-07-24T08:16:31;4.72;;;3.47;;
64826;SDS011;51265;53.972;12.286;2023-07-24T08:18:57;5.95;;;3.70;;
64826;SDS011;51265;53.972;12.286;2023-07-24T08:21:24;4.90;;;3.78;;
64826;SDS011;51265;53.972;12.286;2023-07-24T08:23:50;4.10;;;3.38;;
64826;SDS011;51265;53.972;12.286;2023-07-24T08:26:17;7.03;;;3.80;;
64826;SDS011;51265;53.972;12.286;2023-07-24T08:28:43;4.32;;;3.20;;
64826;SDS011;51265;53.972;12.286;2023-07-24T08:31:22;6.45;;;3.67;;
64826;SDS011;51265;53.972;12.286;2023-07-24T08:33:48;6.30;;;3.78;;
64826;SDS011;51265;53.972;12.286;2023-07-24T08:36:15;4.82;;;3.67;;
64826;SDS011;51265;53.972;12.286;2023-07-24T08:38:41;5.53;;;3.55;;
64826;SDS011;51265;53.972;12.286;2023-07-24T08:41:09;4.35;;;3.55;;
64826;SDS011;51265;53.972;12.286;2023-07-24T08:43:37;5.05;;;3.58;;
64826;SDS011;51265;53.972;12.286;2023-07-24T08:46:05;6.60;;;3.40;;
64826;SDS011;51265;53.972;12.286;2023-07-24T08:48:44;5.90;;;3.13;;
64826;SDS011;51265;53.972;12.286;2023-07-24T08:51:11;3.75;;;3.20;;
64826;SDS011;51265;53.972;12.286;2023-07-24T08:53:39;3.03;;;2.45;;
64826;SDS011;51265;53.972;12.286;2023-07-24T08:56:08;3.40;;;2.70;;
64826;SDS011;51265;53.972;12.286;2023-07-24T08:58:35;4.20;;;2.70;;
64826;SDS011;51265;53.972;12.286;2023-07-24T09:01:03;3.38;;;2.67;;
64826;SDS011;51265;53.972;12.286;2023-07-24T09:03:30;3.00;;;2.33;;
64826;SDS011;51265;53.972;12.286;2023-07-24T09:05:57;3.60;;;2.40;;
64826;SDS011;51265;53.972;12.286;2023-07-24T09:08:33;2.85;;;2.38;;
64826;SDS011;51265;53.972;12.286;2023-07-24T09:11:01;3.95;;;2.55;;
64826;SDS011;51265;53.972;12.286;2023-07-24T09:13:29;4.28;;;3.03;;
64826;SDS011;51265;53.972;12.286;2023-07-24T09:15:55;3.13;;;2.30;;
64826;SDS011;51265;53.972;12.286;2023-07-24T09:18:22;3.47;;;2.35;;
64826;SDS011;51265;53.972;12.286;2023-07-24T09:20:48;3.33;;;2.65;;
64826;SDS011;51265;53.972;12.286;2023-07-24T09:23:15;3.65;;;2.80;;
64826;SDS011;51265;53.972;12.286;2023-07-24T09:25:42;3.97;;;2.45;;
64826;SDS011;51265;53.972;12.286;2023-07-24T09:30:36;3.85;;;2.20;;
64826;SDS011;51265;53.972;12.286;2023-07-24T09:33:03;5.68;;;2.72;;
64826;SDS011;51265;53.972;12.286;2023-07-24T09:35:30;8.63;;;3.30;;
64826;SDS011;51265;53.972;12.286;2023-07-24T09:38:01;9.50;;;3.00;;
64826;SDS011;51265;53.972;12.286;2023-07-24T09:40:42;3.25;;;2.70;;
64826;SDS011;51265;53.972;12.286;2023-07-24T09:43:17;5.85;;;2.83;;
64826;SDS011;51265;53.972;12.286;2023-07-24T09:45:45;6.35;;;3.10;;
64826;SDS011;51265;53.972;12.286;2023-07-24T09:48:13;9.20;;;3.40;;
64826;SDS011;51265;53.972;12.286;2023-07-24T09:50:52;6.47;;;3.60;;
64826;SDS011;51265;53.972;12.286;2023-07-24T09:55:59;8.05;;;3.97;;
64826;SDS011;51265;53.972;12.286;2023-07-24T09:58:28;13.88;;;4.80;;
64826;SDS011;51265;53.972;12.286;2023-07-24T10:00:55;7.95;;;4.85;;
64826;SDS011;51265;53.972;12.286;2023-07-24T10:03:23;11.60;;;5.22;;
64826;SDS011;51265;53.972;12.286;2023-07-24T10:05:49;11.95;;;5.30;;
64826;SDS011;51265;53.972;12.286;2023-07-24T10:08:17;7.70;;;5.22;;
64826;SDS011;51265;53.972;12.286;2023-07-24T10:10:44;13.73;;;5.25;;
64826;SDS011;51265;53.972;12.286;2023-07-24T10:13:12;24.85;;;6.05;;
64826;SDS011;51265;53.972;12.286;2023-07-24T10:15:41;18.08;;;5.90;;
64826;SDS011;51265;53.972;12.286;2023-07-24T10:18:08;9.43;;;5.80;;
64826;SDS011;51265;53.972;12.286;2023-07-24T10:20:36;6.97;;;4.80;;
64826;SDS011;51265;53.972;12.286;2023-07-24T10:23:05;11.75;;;6.07;;
64826;SDS011;51265;53.972;12.286;2023-07-24T10:25:35;11.65;;;5.60;;
64826;SDS011;51265;53.972;12.286;2023-07-24T10:28:10;9.27;;;5.22;;
64826;SDS011;51265;53.972;12.286;2023-07-24T10:30:38;13.57;;;5.20;;
64826;SDS011;51265;53.972;12.286;2023-07-24T10:33:12;13.35;;;4.78;;
64826;SDS011;51265;53.972;12.286;2023-07-24T10:35:44;5.43;;;3.40;;
64826;SDS011;51265;53.972;12.286;2023-07-24T10:38:13;6.30;;;4.03;;
64826;SDS011;51265;53.972;12.286;2023-07-24T10:40:41;7.28;;;4.20;;
64826;SDS011;51265;53.972;12.286;2023-07-24T10:43:09;4.45;;;3.70;;
64826;SDS011;51265;53.972;12.286;2023-07-24T10:48:15;4.63;;;3.45;;
64826;SDS011;51265;53.972;12.286;2023-07-24T10:50:43;3.72;;;2.90;;
64826;SDS011;51265;53.972;12.286;2023-07-24T10:53:11;7.63;;;3.30;;
64826;SDS011;51265;53.972;12.286;2023-07-24T10:55:39;3.15;;;2.70;;
64826;SDS011;51265;53.972;12.286;2023-07-24T10:58:05;4.50;;;2.50;;
64826;SDS011;51265;53.972;12.286;2023-07-24T11:00:32;2.00;;;1.80;;
64826;SDS011;51265;53.972;12.286;2023-07-24T11:02:58;3.63;;;1.90;;
64826;SDS011;51265;53.972;12.286;2023-07-24T11:05:25;2.85;;;1.45;;
64826;SDS011;51265;53.972;12.286;2023-07-24T11:07:51;2.10;;;1.60;;
64826;SDS011;51265;53.972;12.286;2023-07-24T11:10:22;2.10;;;1.42;;
64826;SDS011;51265;53.972;12.286;2023-07-24T11:12:49;2.83;;;1.85;;
64826;SDS011;51265;53.972;12.286;2023-07-24T11:15:23;2.33;;;1.45;;
64826;SDS011;51265;53.972;12.286;2023-07-24T11:17:50;2.78;;;1.77;;
64826;SDS011;51265;53.972;12.286;2023-07-24T11:20:17;5.80;;;1.70;;
64826;SDS011;51265;53.972;12.286;2023-07-24T11:22:43;4.25;;;2.20;;
64826;SDS011;51265;53.972;12.286;2023-07-24T11:25:10;3.45;;;2.22;;
64826;SDS011;51265;53.972;12.286;2023-07-24T11:27:40;2.33;;;1.70;;
64826;SDS011;51265;53.972;12.286;2023-07-24T11:30:10;2.08;;;1.70;;
64826;SDS011;51265;53.972;12.286;2023-07-24T11:32:38;8.88;;;2.35;;
64826;SDS011;51265;53.972;12.286;2023-07-24T11:35:06;4.38;;;2.35;;
64826;SDS011;51265;53.972;12.286;2023-07-24T11:37:34;2.53;;;2.25;;
64826;SDS011;51265;53.972;12.286;2023-07-24T11:40:01;2.38;;;2.08;;
64826;SDS011;51265;53.972;12.286;2023-07-24T11:42:45;3.30;;;2.20;;
64826;SDS011;51265;53.972;12.286;2023-07-24T11:45:26;1.65;;;1.55;;
64826;SDS011;51265;53.972;12.286;2023-07-24T11:47:53;2.60;;;1.70;;
64826;SDS011;51265;53.972;12.286;2023-07-24T11:50:19;1.95;;;1.70;;
64826;SDS011;51265;53.972;12.286;2023-07-24T11:52:55;2.47;;;1.67;;
64826;SDS011;51265;53.972;12.286;2023-07-24T11:55:31;3.08;;;1.70;;
64826;SDS011;51265;53.972;12.286;2023-07-24T11:57:58;2.05;;;1.50;;
64826;SDS011;51265;53.972;12.286;2023-07-24T12:00:26;2.38;;;1.52;;
64826;SDS011;51265;53.972;12.286;2023-07-24T12:02:58;1.30;;;1.20;;
64826;SDS011;51265;53.972;12.286;2023-07-24T12:05:25;1.60;;;1.50;;
64826;SDS011;51265;53.972;12.286;2023-07-24T12:07:53;1.75;;;1.50;;
64826;SDS011;51265;53.972;12.286;2023-07-24T12:10:27;1.60;;;1.40;;
64826;SDS011;51265;53.972;12.286;2023-07-24T12:12:54;3.78;;;1.70;;
64826;SDS011;51265;53.972;12.286;2023-07-24T12:15:24;2.88;;;1.85;;
64826;SDS011;51265;53.972;12.286;2023-07-24T12:17:50;2.15;;;1.60;;
64826;SDS011;51265;53.972;12.286;2023-07-24T12:20:16;3.50;;;1.80;;
64826;SDS011;51265;53.972;12.286;2023-07-24T12:22:43;3.15;;;1.58;;
64826;SDS011;51265;53.972;12.286;2023-07-24T12:25:09;1.40;;;1.30;;
64826;SDS011;51265;53.972;12.286;2023-07-24T12:27:35;4.85;;;1.50;;
64826;SDS011;51265;53.972;12.286;2023-07-24T12:30:03;1.50;;;1.40;;
64826;SDS011;51265;53.972;12.286;2023-07-24T12:32:29;3.30;;;1.70;;
64826;SDS011;51265;53.972;12.286;2023-07-24T12:34:55;2.47;;;1.52;;
64826;SDS011;51265;53.972;12.286;2023-07-24T12:37:22;1.40;;;1.30;;
64826;SDS011;51265;53.972;12.286;2023-07-24T12:39:48;3.05;;;1.90;;
64826;SDS011;51265;53.972;12.286;2023-07-24T12:42:15;3.35;;;1.90;;
64826;SDS011;51265;53.972;12.286;2023-07-24T12:44:42;2.97;;;1.75;;
64826;SDS011;51265;53.972;12.286;2023-07-24T12:47:09;3.67;;;1.88;;
64826;SDS011;51265;53.972;12.286;2023-07-24T12:49:36;1.65;;;1.45;;
64826;SDS011;51265;53.972;12.286;2023-07-24T12:52:03;2.20;;;1.63;;
64826;SDS011;51265;53.972;12.286;2023-07-24T12:54:31;5.72;;;1.90;;
64826;SDS011;51265;53.972;12.286;2023-07-24T12:56:58;2.17;;;1.75;;
64826;SDS011;51265;53.972;12.286;2023-07-24T12:59:24;2.38;;;1.80;;
64826;SDS011;51265;53.972;12.286;2023-07-24T13:01:50;2.45;;;2.05;;
64826;SDS011;51265;53.972;12.286;2023-07-24T13:04:16;2.10;;;1.90;;
64826;SDS011;51265;53.972;12.286;2023-07-24T13:06:43;2.20;;;1.83;;
64826;SDS011;51265;53.972;12.286;2023-07-24T13:09:09;3.75;;;1.90;;
64826;SDS011;51265;53.972;12.286;2023-07-24T13:11:51;5.30;;;2.20;;
64826;SDS011;51265;53.972;12.286;2023-07-24T13:14:20;3.38;;;2.05;;
64826;SDS011;51265;53.972;12.286;2023-07-24T13:16:47;2.50;;;1.70;;
64826;SDS011;51265;53.972;12.286;2023-07-24T13:19:13;2.05;;;1.80;;
64826;SDS011;51265;53.972;12.286;2023-07-24T13:21:39;1.85;;;1.73;;
64826;SDS011;51265;53.972;12.286;2023-07-24T13:24:06;2.00;;;1.80;;
64826;SDS011;51265;53.972;12.286;2023-07-24T13:26:33;1.80;;;1.58;;
64826;SDS011;51265;53.972;12.286;2023-07-24T13:28:59;4.88;;;1.90;;
64826;SDS011;51265;53.972;12.286;2023-07-24T13:31:25;2.03;;;1.77;;
64826;SDS011;51265;53.972;12.286;2023-07-24T13:33:53;3.25;;;1.75;;
64826;SDS011;51265;53.972;12.286;2023-07-24T13:36:20;2.35;;;1.73;;
64826;SDS011;51265;53.972;12.286;2023-07-24T13:38:46;2.30;;;1.90;;
64826;SDS011;51265;53.972;12.286;2023-07-24T13:41:12;3.03;;;2.15;;
64826;SDS011;51265;53.972;12.286;2023-07-24T13:43:38;3.50;;;1.90;;
64826;SDS011;51265;53.972;12.286;2023-07-24T13:46:04;2.20;;;1.83;;
64826;SDS011;51265;53.972;12.286;2023-07-24T13:48:33;2.67;;;1.80;;
64826;SDS011;51265;53.972;12.286;2023-07-24T13:50:59;2.60;;;2.20;;
64826;SDS011;51265;53.972;12.286;2023-07-24T13:53:26;4.70;;;2.10;;
64826;SDS011;51265;53.972;12.286;2023-07-24T13:55:52;2.65;;;1.98;;
64826;SDS011;51265;53.972;12.286;2023-07-24T13:58:18;3.78;;;2.30;;
64826;SDS011;51265;53.972;12.286;2023-07-24T14:00:44;3.33;;;2.08;;
64826;SDS011;51265;53.972;12.286;2023-07-24T14:03:10;2.13;;;1.92;;
64826;SDS011;51265;53.972;12.286;2023-07-24T14:05:37;2.70;;;1.70;;
64826;SDS011;51265;53.972;12.286;2023-07-24T14:08:03;4.97;;;2.40;;
64826;SDS011;51265;53.972;12.286;2023-07-24T14:10:29;2.67;;;2.22;;
64826;SDS011;51265;53.972;12.286;2023-07-24T14:12:56;2.55;;;2.10;;
64826;SDS011;51265;53.972;12.286;2023-07-24T14:15:32;3.42;;;2.00;;
64826;SDS011;51265;53.972;12.286;2023-07-24T14:17:59;3.00;;;2.47;;
64826;SDS011;51265;53.972;12.286;2023-07-24T14:20:25;4.05;;;2.30;;
64826;SDS011;51265;53.972;12.286;2023-07-24T14:22:51;3.90;;;2.33;;
64826;SDS011;51265;53.972;12.286;2023-07-24T14:25:17;2.88;;;2.50;;
64826;SDS011;51265;53.972;12.286;2023-07-24T14:27:43;6.22;;;2.78;;
64826;SDS011;51265;53.972;12.286;2023-07-24T14:30:10;3.28;;;2.70;;
64826;SDS011;51265;53.972;12.286;2023-07-24T14:32:36;3.45;;;3.00;;
64826;SDS011;51265;53.972;12.286;2023-07-24T14:35:03;5.05;;;3.30;;
64826;SDS011;51265;53.972;12.286;2023-07-24T14:37:29;3.83;;;3.00;;
64826;SDS011;51265;53.972;12.286;2023-07-24T14:39:55;3.50;;;3.20;;